Time;durP1;ratioP1;P1;durP2;ratioP2;P2;SDS_P1;SDS_P2;PMS_P1;PMS_P2;Temp;Humidity;BMP_temperature;BMP_pressure;BME280_temperature;BME280_humidity;BME280_pressure;Samples;Min_cycle;Max_cycle;Signal;HPM_P1;HPM_P2
2021/03/18 00:02:24;;;;;;;2.63;1.20;;;23.10;28.30;;;;;;5052960;28;20205;-55
2021/03/18 00:04:50;;;;;;;1.87;1.30;;;23.10;28.40;;;;;;5051905;28;20232;-51
2021/03/18 00:07:16;;;;;;;3.50;1.20;;;23.10;28.30;;;;;;5052242;28;20265;-53
2021/03/18 00:09:42;;;;;;;3.40;1.80;;;23.20;28.30;;;;;;5051614;28;20216;-55
2021/03/18 00:12:08;;;;;;;3.50;1.57;;;23.10;28.70;;;;;;5048016;28;20199;-54
2021/03/18 00:14:34;;;;;;;2.67;1.37;;;23.10;28.20;;;;;;5051493;28;20226;-53
2021/03/18 00:17:00;;;;;;;4.03;1.40;;;23.10;28.10;;;;;;5052137;28;21003;-53
2021/03/18 00:19:26;;;;;;;3.57;1.50;;;23.10;28.10;;;;;;5052345;28;20197;-52
2021/03/18 00:21:52;;;;;;;1.37;1.10;;;23.10;28.10;;;;;;5051283;28;20224;-55
2021/03/18 00:24:18;;;;;;;1.63;1.50;;;23.10;28.20;;;;;;5052824;28;20218;-55
2021/03/18 00:26:44;;;;;;;1.53;1.30;;;23.10;28.20;;;;;;5050987;28;20250;-55
2021/03/18 00:29:10;;;;;;;1.90;1.30;;;23.10;28.30;;;;;;5051434;28;20202;-48
2021/03/18 00:31:36;;;;;;;1.83;1.17;;;23.10;28.40;;;;;;5050235;28;20212;-55
2021/03/18 00:34:02;;;;;;;2.40;1.40;;;23.10;28.50;;;;;;5052424;28;20213;-53
2021/03/18 00:36:28;;;;;;;1.27;1.17;;;23.10;28.50;;;;;;5049995;28;20258;-54
2021/03/18 00:38:54;;;;;;;1.73;1.30;;;23.10;28.50;;;;;;5050641;28;20201;-54
2021/03/18 00:41:20;;;;;;;2.63;1.60;;;23.10;28.50;;;;;;5049821;28;20209;-57
2021/03/18 00:43:46;;;;;;;2.47;1.20;;;23.10;28.60;;;;;;5048669;28;20234;-55
2021/03/18 00:46:12;;;;;;;1.97;1.33;;;23.10;28.50;;;;;;5051615;28;20283;-50
2021/03/18 00:48:38;;;;;;;1.40;1.30;;;23.00;28.50;;;;;;5049928;28;20207;-54
2021/03/18 00:51:04;;;;;;;2.70;1.20;;;23.10;28.60;;;;;;5051947;28;20197;-54
2021/03/18 00:53:30;;;;;;;1.67;1.30;;;23.10;28.60;;;;;;5050676;28;20206;-51
2021/03/18 00:55:56;;;;;;;2.47;1.20;;;23.00;28.50;;;;;;5051967;28;20270;-56
2021/03/18 00:58:22;;;;;;;1.67;1.10;;;23.10;28.60;;;;;;5050714;28;20658;-54
2021/03/18 01:00:47;;;;;;;1.40;1.30;;;23.10;28.50;;;;;;5052063;28;20208;-56
2021/03/18 01:03:13;;;;;;;2.70;1.23;;;23.10;28.50;;;;;;5050354;28;20553;-55
2021/03/18 01:05:39;;;;;;;1.20;1.10;;;23.10;28.50;;;;;;5051410;28;20291;-52
2021/03/18 01:08:05;;;;;;;2.17;1.30;;;23.10;28.50;;;;;;5051165;28;20289;-54
2021/03/18 01:10:31;;;;;;;2.87;1.43;;;23.10;28.50;;;;;;5048803;28;20200;-52
2021/03/18 01:12:57;;;;;;;2.80;1.63;;;23.10;28.40;;;;;;5050938;28;20202;-56
2021/03/18 01:15:23;;;;;;;2.07;1.23;;;23.10;28.40;;;;;;5050730;28;20225;-56
2021/03/18 01:17:49;;;;;;;1.40;1.20;;;23.10;28.30;;;;;;5037267;28;20210;-55
2021/03/18 01:20:15;;;;;;;3.47;1.47;;;23.10;28.40;;;;;;5050559;28;20201;-55
2021/03/18 01:22:41;;;;;;;1.93;1.10;;;23.10;28.40;;;;;;5051088;28;20205;-57
2021/03/18 01:25:07;;;;;;;2.03;1.10;;;23.10;28.40;;;;;;5049212;28;20722;-55
2021/03/18 01:27:33;;;;;;;1.67;1.10;;;23.10;28.40;;;;;;5051409;28;20233;-56
2021/03/18 01:29:59;;;;;;;1.93;1.10;;;23.10;28.50;;;;;;5049848;28;20645;-55
2021/03/18 01:32:25;;;;;;;1.70;1.33;;;23.10;28.50;;;;;;5046604;28;20201;-53
2021/03/18 01:34:51;;;;;;;1.83;1.20;;;23.00;28.50;;;;;;5050594;28;20221;-55
2021/03/18 01:37:17;;;;;;;2.53;1.30;;;23.00;28.60;;;;;;5051559;28;20212;-55
2021/03/18 01:39:43;;;;;;;2.40;1.27;;;23.00;28.50;;;;;;5049734;28;20198;-55
2021/03/18 01:42:09;;;;;;;1.53;1.10;;;23.00;28.60;;;;;;5049973;28;20255;-57
2021/03/18 01:44:35;;;;;;;1.30;1.20;;;23.00;28.60;;;;;;5048689;28;20233;-55
2021/03/18 01:47:01;;;;;;;2.73;1.30;;;23.00;28.70;;;;;;5051448;28;20224;-55
2021/03/18 01:49:27;;;;;;;1.33;1.10;;;23.00;28.60;;;;;;5050608;28;20212;-51
2021/03/18 01:51:53;;;;;;;1.37;1.20;;;23.00;28.70;;;;;;5050615;28;20654;-55
2021/03/18 01:54:19;;;;;;;1.57;1.20;;;23.00;28.60;;;;;;5047902;28;20221;-51
2021/03/18 01:56:45;;;;;;;1.63;1.40;;;23.00;28.60;;;;;;5050618;28;20565;-56
2021/03/18 01:59:11;;;;;;;1.50;0.93;;;23.00;28.60;;;;;;5050545;28;20201;-55
2021/03/18 02:01:37;;;;;;;1.23;1.10;;;23.00;28.60;;;;;;5049347;28;20243;-52
2021/03/18 02:04:03;;;;;;;1.83;1.27;;;23.00;28.60;;;;;;5051752;28;20224;-54
2021/03/18 02:06:29;;;;;;;1.63;0.93;;;23.00;28.60;;;;;;5050021;28;20220;-54
2021/03/18 02:08:55;;;;;;;1.60;1.20;;;23.00;28.60;;;;;;5050289;28;20209;-55
2021/03/18 02:11:21;;;;;;;1.57;1.17;;;23.00;28.50;;;;;;5050861;28;20205;-57
2021/03/18 02:13:47;;;;;;;1.67;1.10;;;23.00;28.50;;;;;;5049526;28;20229;-53
2021/03/18 02:16:13;;;;;;;1.63;1.27;;;23.00;28.50;;;;;;5050500;28;20217;-53
2021/03/18 02:18:39;;;;;;;1.30;1.10;;;23.00;28.50;;;;;;5050913;28;20197;-54
2021/03/18 02:21:05;;;;;;;2.27;1.10;;;23.00;28.50;;;;;;5049787;28;20655;-56
2021/03/18 02:23:31;;;;;;;1.57;1.47;;;23.00;28.50;;;;;;5043496;28;20231;-56
2021/03/18 02:25:57;;;;;;;1.10;1.00;;;23.00;28.50;;;;;;5049991;28;20666;-54
2021/03/18 02:28:23;;;;;;;1.40;1.30;;;23.00;28.50;;;;;;5049832;28;20213;-53
2021/03/18 02:30:49;;;;;;;1.30;1.20;;;23.00;28.50;;;;;;5050800;28;20565;-55
2021/03/18 02:33:15;;;;;;;1.87;1.30;;;23.00;28.50;;;;;;5049164;28;20233;-55
2021/03/18 02:35:41;;;;;;;1.20;1.10;;;23.00;28.60;;;;;;5047092;28;20267;-53
2021/03/18 02:38:07;;;;;;;1.73;1.20;;;23.00;28.60;;;;;;5048372;28;20204;-55
2021/03/18 02:40:33;;;;;;;1.20;1.10;;;23.00;28.60;;;;;;5050741;28;20212;-56
2021/03/18 02:42:59;;;;;;;1.47;1.13;;;23.00;28.60;;;;;;5049436;28;20221;-57
2021/03/18 02:45:25;;;;;;;1.30;1.20;;;23.00;28.70;;;;;;5050628;28;20559;-55
2021/03/18 02:47:51;;;;;;;2.73;1.20;;;23.00;28.70;;;;;;5048384;28;20233;-55
2021/03/18 02:50:17;;;;;;;1.43;1.10;;;23.00;28.60;;;;;;5048141;28;20197;-55
2021/03/18 02:52:43;;;;;;;2.40;1.20;;;23.00;28.70;;;;;;5049742;28;20205;-55
2021/03/18 02:55:09;;;;;;;2.03;1.17;;;23.00;28.70;;;;;;5051223;28;20201;-55
2021/03/18 02:57:35;;;;;;;1.23;1.13;;;23.00;28.70;;;;;;5054399;28;20235;-53
2021/03/18 03:00:01;;;;;;;1.57;1.00;;;23.00;28.70;;;;;;5053672;28;20668;-54
2021/03/18 03:02:27;;;;;;;1.33;1.10;;;23.00;28.70;;;;;;5053645;28;20208;-51
2021/03/18 03:04:53;;;;;;;1.43;1.10;;;23.00;28.70;;;;;;5052737;28;20596;-57
2021/03/18 03:07:19;;;;;;;2.80;1.00;;;23.00;28.60;;;;;;5053583;28;20229;-53
2021/03/18 03:09:45;;;;;;;1.17;1.07;;;23.00;28.70;;;;;;5053248;28;20306;-53
2021/03/18 03:12:11;;;;;;;1.20;1.00;;;23.00;28.60;;;;;;5050266;28;20203;-54
2021/03/18 03:14:37;;;;;;;1.43;1.23;;;23.00;28.60;;;;;;5050744;28;20229;-54
2021/03/18 03:17:03;;;;;;;1.33;1.23;;;23.00;28.60;;;;;;5050203;28;20206;-56
2021/03/18 03:19:29;;;;;;;1.27;1.00;;;23.00;28.60;;;;;;5046351;28;20201;-57
2021/03/18 03:21:55;;;;;;;1.80;1.07;;;23.00;28.60;;;;;;5051905;28;20567;-58
2021/03/18 03:24:21;;;;;;;1.57;1.10;;;23.00;28.60;;;;;;5052195;28;20225;-58
2021/03/18 03:26:47;;;;;;;0.90;0.90;;;23.00;28.60;;;;;;5053572;28;20246;-56
2021/03/18 03:29:13;;;;;;;1.17;1.17;;;23.00;28.60;;;;;;5051565;28;20194;-54
2021/03/18 03:31:39;;;;;;;1.20;1.10;;;23.00;28.60;;;;;;5053170;28;20201;-53
2021/03/18 03:34:05;;;;;;;1.40;1.10;;;23.00;28.60;;;;;;5052527;28;20221;-56
2021/03/18 03:36:30;;;;;;;2.60;1.30;;;23.00;28.60;;;;;;5053400;28;20221;-54
2021/03/18 03:38:56;;;;;;;1.00;0.93;;;23.00;28.60;;;;;;5052146;28;20201;-54
2021/03/18 03:41:22;;;;;;;1.30;0.97;;;23.00;28.60;;;;;;5052810;28;20207;-56
2021/03/18 03:43:48;;;;;;;1.40;1.30;;;23.00;28.60;;;;;;5051871;28;20240;-56
2021/03/18 03:46:14;;;;;;;1.87;1.20;;;23.00;28.60;;;;;;5053594;28;20232;-51
2021/03/18 03:48:40;;;;;;;1.63;1.20;;;23.00;28.70;;;;;;5051271;28;20211;-57
2021/03/18 03:51:06;;;;;;;1.50;1.40;;;23.00;28.70;;;;;;5051878;28;20224;-56
2021/03/18 03:53:32;;;;;;;1.40;1.30;;;23.00;29.00;;;;;;5051766;28;20247;-54
2021/03/18 03:55:58;;;;;;;2.10;1.30;;;23.00;28.80;;;;;;5053223;28;20200;-54
2021/03/18 03:58:24;;;;;;;1.10;1.00;;;23.00;28.70;;;;;;5052131;28;20219;-56
2021/03/18 04:00:50;;;;;;;1.50;1.40;;;23.00;28.70;;;;;;5052285;28;20205;-56
2021/03/18 04:03:16;;;;;;;1.90;1.67;;;23.00;28.80;;;;;;5051868;28;20290;-55
2021/03/18 04:05:42;;;;;;;1.63;1.40;;;23.00;28.70;;;;;;5052244;28;20197;-55
2021/03/18 04:08:08;;;;;;;2.47;1.23;;;23.00;28.70;;;;;;5050934;28;20251;-56
2021/03/18 04:10:34;;;;;;;1.20;1.10;;;23.00;28.70;;;;;;5051794;28;20201;-56
2021/03/18 04:13:00;;;;;;;2.30;1.23;;;23.00;28.70;;;;;;5051529;28;20271;-56
2021/03/18 04:15:26;;;;;;;2.40;1.10;;;23.00;28.70;;;;;;5052954;28;20247;-56
2021/03/18 04:17:52;;;;;;;2.30;1.33;;;23.00;28.70;;;;;;5051406;28;20203;-53
2021/03/18 04:20:18;;;;;;;1.23;1.13;;;23.00;28.70;;;;;;5051743;28;20208;-56
2021/03/18 04:22:44;;;;;;;1.57;1.10;;;23.00;28.70;;;;;;5050609;28;20223;-54
2021/03/18 04:25:10;;;;;;;1.43;1.17;;;23.00;28.70;;;;;;5051756;28;20609;-54
2021/03/18 04:27:37;;;;;;;1.27;1.17;;;23.00;28.60;;;;;;5052606;28;20225;-55
2021/03/18 04:30:03;;;;;;;2.27;1.30;;;23.00;28.60;;;;;;5051132;28;20216;-56
2021/03/18 04:32:29;;;;;;;1.53;1.40;;;23.00;28.70;;;;;;5052196;28;20199;-55
2021/03/18 04:34:55;;;;;;;1.10;1.00;;;23.00;28.70;;;;;;5051652;28;20258;-54
2021/03/18 04:37:21;;;;;;;1.40;1.13;;;23.00;28.70;;;;;;5052757;28;20197;-53
2021/03/18 04:39:47;;;;;;;1.40;1.30;;;23.00;28.70;;;;;;5052471;28;20201;-50
2021/03/18 04:42:13;;;;;;;1.83;1.20;;;23.00;28.70;;;;;;5050401;28;20216;-49
2021/03/18 04:44:39;;;;;;;1.43;1.30;;;23.00;28.70;;;;;;5051666;28;20571;-55
2021/03/18 04:47:05;;;;;;;2.57;1.93;;;23.00;28.70;;;;;;5050175;28;20697;-52
2021/03/18 04:49:31;;;;;;;1.87;1.57;;;22.90;28.60;;;;;;5051940;28;20201;-56
2021/03/18 04:51:57;;;;;;;1.50;1.30;;;23.00;28.70;;;;;;5050138;28;20205;-55
2021/03/18 04:54:23;;;;;;;1.87;1.50;;;22.90;28.60;;;;;;5052267;28;20220;-53
2021/03/18 04:56:49;;;;;;;2.73;1.13;;;23.00;28.70;;;;;;5051427;28;20201;-56
2021/03/18 04:59:15;;;;;;;2.00;1.40;;;22.90;28.60;;;;;;5050895;28;20205;-54
2021/03/18 05:01:41;;;;;;;1.00;1.00;;;23.00;29.20;;;;;;5049510;28;20205;-52
2021/03/18 05:04:07;;;;;;;1.30;1.20;;;23.00;28.70;;;;;;5051132;28;20639;-54
2021/03/18 05:06:33;;;;;;;1.57;1.27;;;22.90;28.60;;;;;;5051129;28;20229;-55
2021/03/18 05:08:59;;;;;;;2.17;1.20;;;22.90;28.60;;;;;;5050627;28;20580;-55
2021/03/18 05:11:25;;;;;;;2.90;1.43;;;22.90;28.70;;;;;;5051074;28;20211;-56
2021/03/18 05:13:51;;;;;;;1.10;1.10;;;23.00;28.70;;;;;;5048071;28;20221;-51
2021/03/18 05:16:17;;;;;;;2.50;1.10;;;23.00;28.80;;;;;;5050778;28;20221;-56
2021/03/18 05:18:43;;;;;;;1.20;1.10;;;23.00;28.70;;;;;;5050357;28;20559;-53
2021/03/18 05:21:09;;;;;;;1.63;1.27;;;23.00;28.70;;;;;;5051053;28;20197;-51
2021/03/18 05:23:35;;;;;;;1.97;1.27;;;23.00;28.80;;;;;;5050106;28;20609;-58
2021/03/18 05:26:01;;;;;;;1.30;1.20;;;23.00;28.70;;;;;;5051671;28;20204;-55
2021/03/18 05:28:27;;;;;;;2.97;1.40;;;23.00;28.70;;;;;;5050482;28;20278;-54
2021/03/18 05:30:53;;;;;;;1.53;1.43;;;23.00;28.70;;;;;;5050570;28;20200;-56
2021/03/18 05:33:19;;;;;;;2.00;1.13;;;23.00;28.70;;;;;;5050312;28;20225;-55
2021/03/18 05:35:45;;;;;;;2.47;1.40;;;23.00;28.70;;;;;;5051456;28;20266;-55
2021/03/18 05:38:11;;;;;;;1.73;1.27;;;22.90;28.60;;;;;;5049008;28;20209;-54
2021/03/18 05:40:37;;;;;;;1.50;1.10;;;23.00;28.70;;;;;;5051393;28;20197;-56
2021/03/18 05:43:03;;;;;;;1.60;1.50;;;22.90;28.60;;;;;;5048940;28;20225;-55
2021/03/18 05:45:29;;;;;;;2.13;1.20;;;22.90;28.70;;;;;;5050005;28;20204;-56
2021/03/18 05:47:55;;;;;;;1.40;1.30;;;22.90;28.70;;;;;;5044036;28;20287;-56
2021/03/18 05:50:21;;;;;;;1.30;1.20;;;22.90;28.60;;;;;;5049559;28;20198;-56
2021/03/18 05:52:47;;;;;;;1.30;1.20;;;22.90;28.60;;;;;;5049707;28;20227;-54
2021/03/18 05:55:13;;;;;;;1.00;1.00;;;22.90;28.70;;;;;;5050256;28;20816;-56
2021/03/18 05:57:39;;;;;;;1.70;1.30;;;22.90;28.60;;;;;;5049978;28;20258;-53
2021/03/18 06:00:05;;;;;;;3.70;2.20;;;22.90;28.70;;;;;;5051163;28;20618;-51
2021/03/18 06:02:31;;;;;;;1.30;1.20;;;22.90;28.70;;;;;;5049524;28;20228;-55
2021/03/18 06:04:56;;;;;;;1.20;1.00;;;22.90;28.70;;;;;;5051032;28;20215;-55
2021/03/18 06:07:22;;;;;;;1.63;1.33;;;22.90;28.70;;;;;;5050622;28;20236;-55
2021/03/18 06:09:48;;;;;;;1.57;1.20;;;23.00;28.70;;;;;;5051012;28;20268;-55
2021/03/18 06:12:14;;;;;;;1.70;1.13;;;22.90;28.70;;;;;;5048591;28;20237;-57
2021/03/18 06:14:40;;;;;;;1.97;1.40;;;22.90;28.60;;;;;;5050728;28;20201;-54
2021/03/18 06:17:06;;;;;;;1.63;1.23;;;22.90;28.60;;;;;;5046605;28;20209;-58
2021/03/18 06:19:32;;;;;;;1.20;1.10;;;22.90;28.70;;;;;;5051025;28;20248;-54
2021/03/18 06:21:58;;;;;;;1.80;1.20;;;22.90;28.70;;;;;;5049374;28;20204;-56
2021/03/18 06:24:24;;;;;;;1.47;1.30;;;22.90;28.60;;;;;;5051099;28;20211;-58
2021/03/18 06:26:50;;;;;;;2.20;1.50;;;22.90;28.60;;;;;;5049640;28;20229;-57
2021/03/18 06:29:16;;;;;;;1.50;1.30;;;22.90;28.60;;;;;;5052132;28;20204;-59
2021/03/18 06:31:42;;;;;;;2.97;1.40;;;22.90;28.60;;;;;;5052231;28;20201;-56
2021/03/18 06:34:08;;;;;;;1.30;1.20;;;22.90;28.60;;;;;;5054802;28;20221;-56
2021/03/18 06:36:34;;;;;;;2.87;1.70;;;22.90;28.60;;;;;;5046582;28;20217;-58
2021/03/18 06:39:00;;;;;;;2.40;1.50;;;22.90;29.00;;;;;;5052391;28;20209;-60
2021/03/18 06:41:26;;;;;;;4.87;1.53;;;22.90;29.10;;;;;;5051693;28;20212;-62
2021/03/18 06:43:52;;;;;;;4.07;1.70;;;23.00;29.00;;;;;;5052073;28;20605;-60
2021/03/18 06:46:18;;;;;;;8.37;2.57;;;22.90;28.80;;;;;;5050109;28;20255;-62
2021/03/18 06:48:44;;;;;;;3.90;1.43;;;22.90;29.00;;;;;;5052802;28;20561;-61
2021/03/18 06:51:10;;;;;;;11.87;9.87;;;23.00;28.80;;;;;;5048243;28;20217;-61
2021/03/18 06:53:36;;;;;;;12.90;11.17;;;17.30;22.10;;;;;;5047841;28;20285;-62
2021/03/18 06:56:02;;;;;;;7.70;6.83;;;14.50;25.30;;;;;;5070121;28;20239;-57
2021/03/18 06:58:28;;;;;;;6.73;5.83;;;17.40;26.20;;;;;;5090751;28;20199;-60
2021/03/18 07:00:54;;;;;;;4.90;4.20;;;19.40;25.60;;;;;;5093281;28;20626;-61
2021/03/18 07:03:20;;;;;;;6.17;4.00;;;20.50;25.20;;;;;;5092274;28;20761;-61
2021/03/18 07:05:46;;;;;;;3.57;3.27;;;21.20;25.20;;;;;;5094170;28;20201;-61
2021/03/18 07:08:12;;;;;;;3.60;3.27;;;21.60;25.20;;;;;;5092564;28;20238;-61
2021/03/18 07:10:38;;;;;;;3.47;2.87;;;21.90;25.60;;;;;;5088435;28;20214;-59
2021/03/18 07:13:04;;;;;;;3.70;3.30;;;22.20;25.80;;;;;;5092347;28;20220;-60
2021/03/18 07:15:30;;;;;;;6.40;2.80;;;22.30;25.90;;;;;;5094023;28;20213;-60
2021/03/18 07:17:56;;;;;;;2.93;2.57;;;22.40;26.00;;;;;;5092875;28;20203;-61
2021/03/18 07:20:22;;;;;;;3.03;2.40;;;22.50;26.10;;;;;;5092415;28;20653;-61
2021/03/18 07:22:48;;;;;;;2.47;2.17;;;22.60;26.20;;;;;;5093109;28;20269;-61
2021/03/18 07:25:14;;;;;;;2.93;2.00;;;22.70;26.40;;;;;;5092979;28;20206;-60
2021/03/18 07:27:40;;;;;;;3.53;2.10;;;22.70;26.40;;;;;;5091330;28;20232;-60
2021/03/18 07:30:06;;;;;;;2.73;2.00;;;22.80;26.70;;;;;;5093177;28;20205;-60
2021/03/18 07:32:33;;;;;;;2.00;1.90;;;22.80;26.70;;;;;;5092774;28;20248;-59
2021/03/18 07:34:59;;;;;;;2.60;2.00;;;22.70;26.80;;;;;;5084910;28;20200;-61
2021/03/18 07:37:25;;;;;;;3.47;1.87;;;22.90;27.00;;;;;;5092524;28;20201;-54
2021/03/18 07:39:51;;;;;;;3.03;2.20;;;22.90;27.10;;;;;;5095311;28;20297;-57
2021/03/18 07:42:16;;;;;;;2.67;1.80;;;22.90;27.20;;;;;;5093667;28;20585;-58
2021/03/18 07:44:42;;;;;;;1.90;1.80;;;22.90;27.20;;;;;;5092207;28;20213;-58
2021/03/18 07:47:09;;;;;;;7.97;2.73;;;23.00;27.60;;;;;;5093994;28;20229;-52
2021/03/18 07:49:35;;;;;;;2.30;1.90;;;22.90;27.50;;;;;;5093426;28;20250;-50
2021/03/18 07:52:01;;;;;;;3.83;1.80;;;23.00;28.30;;;;;;5090340;28;20216;-58
2021/03/18 07:54:27;;;;;;;3.10;1.63;;;23.00;27.60;;;;;;5086987;28;20208;-58
2021/03/18 07:56:53;;;;;;;3.00;1.83;;;22.90;27.60;;;;;;5091497;28;20609;-54
2021/03/18 07:59:19;;;;;;;3.23;1.77;;;22.80;27.50;;;;;;5090957;28;20219;-62
2021/03/18 08:01:45;;;;;;;2.27;1.90;;;22.80;27.90;;;;;;5090178;28;20246;-61
2021/03/18 08:04:11;;;;;;;2.80;2.03;;;22.80;27.90;;;;;;5091478;28;20203;-62
2021/03/18 08:06:37;;;;;;;4.57;2.10;;;22.90;27.60;;;;;;5091031;28;20615;-59
2021/03/18 08:09:03;;;;;;;2.73;1.80;;;22.80;27.90;;;;;;5088916;28;20202;-59
2021/03/18 08:11:29;;;;;;;3.43;2.00;;;22.80;27.90;;;;;;5090823;28;20235;-59
2021/03/18 08:13:55;;;;;;;3.33;1.77;;;22.90;28.00;;;;;;5091886;28;20200;-60
2021/03/18 08:16:21;;;;;;;3.13;1.87;;;22.80;27.90;;;;;;5092243;28;20754;-60
2021/03/18 08:18:47;;;;;;;1.70;1.60;;;22.90;28.00;;;;;;5089782;28;20212;-61
2021/03/18 08:21:13;;;;;;;2.00;1.90;;;22.80;27.90;;;;;;5091879;28;20607;-57
2021/03/18 08:23:39;;;;;;;4.40;2.13;;;22.80;27.90;;;;;;5092389;28;20206;-58
2021/03/18 08:26:05;;;;;;;3.20;1.80;;;22.80;27.90;;;;;;5108444;28;20198;-58
2021/03/18 08:28:31;;;;;;;2.43;1.83;;;22.80;27.90;;;;;;5086689;28;20744;-58
2021/03/18 08:30:57;;;;;;;2.03;1.60;;;22.80;27.90;;;;;;5091024;28;20206;-61
2021/03/18 08:33:23;;;;;;;2.40;1.97;;;22.90;28.00;;;;;;5092149;28;20246;-58
2021/03/18 08:35:49;;;;;;;9.67;2.07;;;22.90;28.00;;;;;;5091618;28;20199;-59
2021/03/18 08:38:15;;;;;;;2.83;1.90;;;22.90;28.00;;;;;;5091690;28;20261;-61
2021/03/18 08:40:41;;;;;;;4.87;1.67;;;22.90;28.00;;;;;;5090958;28;20196;-58
2021/03/18 08:43:07;;;;;;;3.70;1.70;;;22.90;28.00;;;;;;5089941;28;20236;-58
2021/03/18 08:45:33;;;;;;;3.07;1.60;;;22.90;28.00;;;;;;5089735;28;20682;-58
2021/03/18 08:47:59;;;;;;;1.60;1.50;;;22.90;28.00;;;;;;5089262;28;20235;-58
2021/03/18 08:50:25;;;;;;;2.23;1.90;;;22.90;28.00;;;;;;5092064;28;20210;-59
2021/03/18 08:52:51;;;;;;;2.00;1.80;;;22.90;28.00;;;;;;5087340;28;20235;-55
2021/03/18 08:55:17;;;;;;;1.60;1.50;;;22.80;27.90;;;;;;5088943;28;20611;-59
2021/03/18 08:57:43;;;;;;;2.17;1.97;;;22.80;27.90;;;;;;5087570;28;20214;-59
2021/03/18 09:00:09;;;;;;;5.20;1.90;;;22.90;28.00;;;;;;5088494;28;20215;-64
2021/03/18 09:02:35;;;;;;;3.87;3.07;;;22.90;28.00;;;;;;5082994;28;20230;-59
2021/03/18 09:05:01;;;;;;;2.83;2.40;;;22.70;27.20;;;;;;5090559;28;20212;-59
2021/03/18 09:07:27;;;;;;;2.67;1.77;;;22.80;27.30;;;;;;5094441;28;20225;-59
2021/03/18 09:09:53;;;;;;;2.10;1.90;;;22.80;27.50;;;;;;5104122;28;20201;-59
2021/03/18 09:12:19;;;;;;;2.67;1.73;;;22.90;27.70;;;;;;5089985;28;20721;-58
2021/03/18 09:14:45;;;;;;;2.20;1.70;;;22.90;28.00;;;;;;5096172;28;20206;-59
2021/03/18 09:17:11;;;;;;;2.23;1.90;;;22.90;28.00;;;;;;5086979;28;21047;-52
2021/03/18 09:19:37;;;;;;;2.17;1.60;;;22.90;28.00;;;;;;5088845;28;20253;-60
2021/03/18 09:22:03;;;;;;;2.90;1.90;;;22.90;28.00;;;;;;5087455;28;20226;-60
2021/03/18 09:24:29;;;;;;;1.63;1.53;;;22.90;28.00;;;;;;5091504;28;20204;-59
2021/03/18 09:26:55;;;;;;;2.00;1.80;;;23.00;28.00;;;;;;5091175;28;20223;-66
2021/03/18 09:29:21;;;;;;;2.90;1.90;;;23.00;28.00;;;;;;5090389;28;20522;-61
2021/03/18 09:31:47;;;;;;;2.00;1.70;;;23.00;28.00;;;;;;5089032;28;20227;-67
2021/03/18 09:34:13;;;;;;;2.40;1.80;;;23.00;28.00;;;;;;5086454;28;20229;-65
2021/03/18 09:36:39;;;;;;;2.83;1.77;;;23.00;28.00;;;;;;5087559;28;20203;-67
2021/03/18 09:39:05;;;;;;;1.83;1.70;;;23.00;28.10;;;;;;5090701;28;20753;-60
2021/03/18 09:41:31;;;;;;;4.07;3.17;;;23.00;28.00;;;;;;5089061;28;20265;-62
2021/03/18 09:43:57;;;;;;;3.80;2.50;;;22.90;27.20;;;;;;5090884;28;20222;-61
2021/03/18 09:46:23;;;;;;;4.13;2.47;;;22.90;28.00;;;;;;5090005;28;20207;-65
2021/03/18 09:48:49;;;;;;;4.17;2.03;;;22.90;28.00;;;;;;5089900;28;20199;-58
2021/03/18 09:51:15;;;;;;;2.23;1.83;;;22.90;28.40;;;;;;5087810;28;20227;-59
2021/03/18 09:53:41;;;;;;;2.80;1.80;;;22.90;28.80;;;;;;5090366;28;20199;-59
2021/03/18 09:56:07;;;;;;;2.60;2.20;;;22.80;28.70;;;;;;5090700;28;20202;-59
2021/03/18 09:58:33;;;;;;;3.40;2.30;;;22.80;28.60;;;;;;5089518;28;20612;-59
2021/03/18 10:00:59;;;;;;;2.87;1.97;;;22.80;29.70;;;;;;5089612;28;20196;-61
2021/03/18 10:03:25;;;;;;;2.70;2.20;;;22.80;29.40;;;;;;5079822;28;20199;-59
2021/03/18 10:05:51;;;;;;;1.80;1.70;;;22.80;28.70;;;;;;5095171;28;20649;-61
2021/03/18 10:08:17;;;;;;;3.73;1.90;;;22.90;28.30;;;;;;5095267;28;20227;-60
2021/03/18 10:10:43;;;;;;;3.23;1.73;;;22.90;28.30;;;;;;5098527;28;20203;-63
2021/03/18 10:13:09;;;;;;;3.83;3.00;;;22.90;28.20;;;;;;5093023;28;20223;-59
2021/03/18 10:15:35;;;;;;;3.40;2.80;;;22.90;26.40;;;;;;5090871;28;20215;-63
2021/03/18 10:18:02;;;;;;;4.00;2.30;;;22.90;26.60;;;;;;5094074;28;20285;-61
2021/03/18 10:20:28;;;;;;;2.90;2.10;;;22.90;27.20;;;;;;5093251;28;20199;-59
2021/03/18 10:22:54;;;;;;;2.63;2.27;;;23.00;27.60;;;;;;5092590;28;20309;-58
2021/03/18 10:25:20;;;;;;;2.80;2.17;;;23.00;27.90;;;;;;5094536;28;20205;-59
2021/03/18 10:27:46;;;;;;;2.20;2.00;;;23.10;28.10;;;;;;5093455;28;20695;-58
2021/03/18 10:30:12;;;;;;;2.90;2.00;;;23.10;28.10;;;;;;5091813;28;20206;-58
2021/03/18 10:32:38;;;;;;;2.77;2.03;;;23.10;28.10;;;;;;5094040;28;20222;-56
2021/03/18 10:35:04;;;;;;;2.43;2.13;;;23.10;28.10;;;;;;5094874;28;20243;-59
2021/03/18 10:37:32;;;;;;;2.50;2.23;;;23.10;28.10;;;;;;5094705;28;20272;-59
2021/03/18 10:39:58;;;;;;;2.73;2.03;;;23.10;28.10;;;;;;5090640;28;20194;-57
2021/03/18 10:42:24;;;;;;;3.10;2.23;;;23.10;28.10;;;;;;5093149;28;20223;-60
2021/03/18 10:44:50;;;;;;;2.40;2.10;;;23.10;28.10;;;;;;5090800;28;20212;-55
2021/03/18 10:47:16;;;;;;;3.37;2.77;;;23.10;28.10;;;;;;5092798;28;20238;-58
2021/03/18 10:49:42;;;;;;;3.07;2.67;;;23.10;27.90;;;;;;5093951;28;20200;-59
2021/03/18 10:52:08;;;;;;;3.13;2.20;;;23.10;28.10;;;;;;5092169;28;20219;-59
2021/03/18 10:54:34;;;;;;;2.83;1.80;;;23.10;28.10;;;;;;5090550;28;20207;-56
2021/03/18 10:57:00;;;;;;;2.10;1.90;;;23.10;28.10;;;;;;5088804;28;20290;-60
2021/03/18 10:59:26;;;;;;;1.90;1.80;;;23.10;28.10;;;;;;5092591;28;20617;-59
2021/03/18 11:01:53;;;;;;;2.60;2.07;;;23.10;28.10;;;;;;5092177;28;20226;-59
2021/03/18 11:04:19;;;;;;;2.97;2.00;;;23.10;28.10;;;;;;5090565;28;20258;-56
2021/03/18 11:06:45;;;;;;;2.00;1.80;;;23.10;28.20;;;;;;5093989;28;20690;-58
2021/03/18 11:09:11;;;;;;;1.70;1.60;;;23.10;28.30;;;;;;5091940;28;20204;-59
2021/03/18 11:11:37;;;;;;;3.10;2.00;;;23.10;28.40;;;;;;5091130;28;20229;-56
2021/03/18 11:14:02;;;;;;;1.93;1.83;;;23.10;28.40;;;;;;5091899;28;20272;-59
2021/03/18 11:16:28;;;;;;;2.10;1.90;;;23.10;28.50;;;;;;5089713;28;20255;-60
2021/03/18 11:18:54;;;;;;;2.20;2.00;;;23.10;28.50;;;;;;5092674;28;20282;-58
2021/03/18 11:21:20;;;;;;;2.83;1.90;;;23.10;28.50;;;;;;5090971;28;20246;-61
2021/03/18 11:23:46;;;;;;;3.53;2.13;;;23.10;28.60;;;;;;5093003;28;20204;-58
2021/03/18 11:26:12;;;;;;;3.50;1.97;;;23.10;28.60;;;;;;5091697;28;20234;-58
2021/03/18 11:28:38;;;;;;;2.17;1.60;;;23.10;28.50;;;;;;5093534;28;20231;-59
2021/03/18 11:31:04;;;;;;;2.43;2.23;;;23.10;28.50;;;;;;5091843;28;20224;-60
2021/03/18 11:33:33;;;;;;;1.67;1.57;;;23.10;28.50;;;;;;5090527;28;20210;-60
2021/03/18 11:35:59;;;;;;;2.40;1.90;;;23.10;29.00;;;;;;5090636;28;20562;-58
2021/03/18 11:38:25;;;;;;;2.20;1.77;;;23.10;28.70;;;;;;5090627;28;20211;-58
2021/03/18 11:40:51;;;;;;;3.63;1.90;;;23.20;28.60;;;;;;5090350;28;20227;-59
2021/03/18 11:43:16;;;;;;;1.83;1.73;;;23.20;28.50;;;;;;5092195;28;20660;-57
2021/03/18 11:45:42;;;;;;;2.67;1.90;;;23.20;28.60;;;;;;5093149;28;20249;-61
2021/03/18 11:48:08;;;;;;;3.83;2.50;;;23.20;29.00;;;;;;5092382;28;20654;-60
2021/03/18 11:50:34;;;;;;;7.30;4.17;;;23.10;28.50;;;;;;5091969;28;20227;-59
2021/03/18 11:53:00;;;;;;;4.67;3.67;;;22.90;26.90;;;;;;5093736;28;20585;-60
2021/03/18 11:55:26;;;;;;;3.33;3.03;;;22.70;25.50;;;;;;5091217;28;20249;-64
2021/03/18 11:57:57;;;;;;;2.87;2.60;;;22.60;25.80;;;;;;5091086;28;20267;-60
2021/03/18 12:00:23;;;;;;;3.43;2.30;;;22.80;26.20;;;;;;5092136;28;20200;-59
2021/03/18 12:02:49;;;;;;;2.70;2.23;;;22.90;27.10;;;;;;5092116;28;20211;-59
2021/03/18 12:05:15;;;;;;;2.50;2.10;;;22.90;28.00;;;;;;5093275;28;20203;-59
2021/03/18 12:07:41;;;;;;;3.10;2.80;;;22.90;28.10;;;;;;5090766;28;20230;-59
2021/03/18 12:10:07;;;;;;;2.30;1.90;;;23.00;28.30;;;;;;5078798;28;20207;-59
2021/03/18 12:12:33;;;;;;;3.43;2.23;;;23.00;28.40;;;;;;5091544;28;20219;-60
2021/03/18 12:14:59;;;;;;;3.10;2.07;;;23.00;28.50;;;;;;5093149;28;20663;-59
2021/03/18 12:17:25;;;;;;;2.83;2.10;;;23.00;28.60;;;;;;5090937;28;20208;-59
2021/03/18 12:19:51;;;;;;;2.63;1.80;;;23.00;28.90;;;;;;5087283;22;20587;-61
2021/03/18 12:22:17;;;;;;;2.93;1.70;;;23.00;29.00;;;;;;5070851;28;20234;-60
2021/03/18 12:24:43;;;;;;;5.07;2.17;;;23.00;29.20;;;;;;5066945;28;20208;-53
2021/03/18 12:27:09;;;;;;;2.10;1.73;;;23.00;29.10;;;;;;5069895;28;20263;-56
2021/03/18 12:29:35;;;;;;;2.17;1.80;;;23.00;29.00;;;;;;5070543;28;20207;-55
2021/03/18 12:32:01;;;;;;;2.20;2.00;;;23.00;29.20;;;;;;5070424;28;20654;-58
2021/03/18 12:34:27;;;;;;;4.03;2.00;;;23.00;29.00;;;;;;5072451;28;20218;-56
2021/03/18 12:36:53;;;;;;;3.10;2.20;;;23.10;28.90;;;;;;5071228;28;20231;-60
2021/03/18 12:39:19;;;;;;;4.50;1.90;;;23.10;28.90;;;;;;5070082;28;20206;-69